Time;durP1;ratioP1;P1;durP2;ratioP2;P2;SDS_P1;SDS_P2;PMS_P1;PMS_P2;Temp;Humidity;BMP_temperature;BMP_pressure;BME280_temperature;BME280_humidity;BME280_pressure;Samples;Min_cycle;Max_cycle;Signal;HPM_P1;HPM_P2
2023/06/15 00:00:48;;;;;;;;;;;22.30;54.90;;;;;;10368512;28;789;-69
2023/06/15 00:05:43;;;;;;;;;;;22.30;54.80;;;;;;10368941;28;866;-69
2023/06/15 00:10:38;;;;;;;;;;;22.30;54.80;;;;;;10368690;28;1902;-69
2023/06/15 00:15:34;;;;;;;;;;;22.30;54.80;;;;;;10368544;28;900;-69
2023/06/15 00:20:29;;;;;;;;;;;22.30;54.80;;;;;;10368422;28;860;-69
2023/06/15 00:25:24;;;;;;;;;;;22.20;54.60;;;;;;10367634;28;982;-69
2023/06/15 00:30:20;;;;;;;;;;;22.20;54.70;;;;;;10368560;28;863;-69
2023/06/15 00:35:15;;;;;;;;;;;22.20;54.70;;;;;;10367605;28;1968;-69
2023/06/15 00:40:11;;;;;;;;;;;22.20;54.60;;;;;;10367858;28;1201;-69
2023/06/15 00:45:06;;;;;;;;;;;22.20;54.60;;;;;;10366325;28;1034;-69
2023/06/15 00:50:09;;;;;;;;;;;22.20;54.70;;;;;;10366234;28;1014;-69
2023/06/15 00:55:05;;;;;;;;;;;22.20;54.60;;;;;;10366382;28;1977;-69
2023/06/15 01:00:00;;;;;;;;;;;22.20;54.70;;;;;;10366724;28;931;-69
2023/06/15 01:04:55;;;;;;;;;;;22.20;54.70;;;;;;10367507;28;878;-69
2023/06/15 01:09:51;;;;;;;;;;;22.20;54.70;;;;;;10366506;28;862;-69
2023/06/15 01:14:46;;;;;;;;;;;22.20;54.70;;;;;;10366341;28;1907;-69
2023/06/15 01:19:54;;;;;;;;;;;22.20;54.70;;;;;;10366914;28;800;-69
2023/06/15 01:24:49;;;;;;;;;;;22.20;54.70;;;;;;10366502;28;785;-70
2023/06/15 01:29:45;;;;;;;;;;;22.20;54.70;;;;;;10366695;28;812;-69
2023/06/15 01:39:58;;;;;;;;;;;22.10;54.70;;;;;;10365501;28;599;-69
2023/06/15 01:44:58;;;;;;;;;;;22.10;54.60;;;;;;10368528;28;1246;-69
2023/06/15 02:00:22;;;;;;;;;;;22.10;54.70;;;;;;10331047;28;1082;-69
2023/06/15 02:05:17;;;;;;;;;;;22.10;54.70;;;;;;10332242;28;874;-69
2023/06/15 02:10:13;;;;;;;;;;;22.10;54.70;;;;;;10331085;28;899;-69
2023/06/15 02:15:08;;;;;;;;;;;22.10;54.70;;;;;;10332255;28;1989;-69
2023/06/15 02:20:05;;;;;;;;;;;22.10;54.70;;;;;;10332129;28;796;-69
2023/06/15 02:25:00;;;;;;;;;;;22.10;54.70;;;;;;10330453;28;842;-69
2023/06/15 02:29:55;;;;;;;;;;;22.10;54.70;;;;;;10330953;28;850;-69
2023/06/15 02:34:51;;;;;;;;;;;22.10;54.70;;;;;;10331427;28;1906;-69
2023/06/15 02:39:46;;;;;;;;;;;22.00;54.70;;;;;;10331220;28;954;-69
2023/06/15 02:44:41;;;;;;;;;;;22.00;54.70;;;;;;10330471;28;1046;-69
2023/06/15 02:49:37;;;;;;;;;;;22.00;54.60;;;;;;10330204;28;801;-69
2023/06/15 02:54:32;;;;;;;;;;;22.00;54.70;;;;;;10329787;28;1943;-69
2023/06/15 02:59:28;;;;;;;;;;;22.00;54.70;;;;;;10329138;28;1466;-69
2023/06/15 03:04:24;;;;;;;;;;;22.00;54.70;;;;;;10329879;28;864;-70
2023/06/15 03:09:19;;;;;;;;;;;22.00;54.70;;;;;;10329365;28;965;-69
2023/06/15 03:14:15;;;;;;;;;;;22.00;54.70;;;;;;10329163;28;1906;-69
2023/06/15 03:19:10;;;;;;;;;;;22.00;54.70;;;;;;10329007;28;773;-69
2023/06/15 03:24:08;;;;;;;;;;;22.00;54.70;;;;;;10329430;28;793;-69
2023/06/15 03:29:03;;;;;;;;;;;22.00;54.60;;;;;;10328679;28;899;-69
2023/06/15 03:33:58;;;;;;;;;;;21.90;54.60;;;;;;10327747;28;1955;-69
2023/06/15 03:38:54;;;;;;;;;;;21.90;54.60;;;;;;10328428;28;794;-70
2023/06/15 03:43:49;;;;;;;;;;;21.90;54.60;;;;;;10328297;28;872;-69
2023/06/15 03:48:45;;;;;;;;;;;21.90;54.60;;;;;;10327877;28;862;-69
2023/06/15 03:53:40;;;;;;;;;;;21.90;54.60;;;;;;10327583;28;1906;-69
2023/06/15 03:58:35;;;;;;;;;;;21.90;54.60;;;;;;10327768;28;1166;-69
2023/06/15 04:03:34;;;;;;;;;;;21.90;54.70;;;;;;10327231;28;936;-69
2023/06/15 04:08:29;;;;;;;;;;;21.90;54.60;;;;;;10326983;28;874;-71
2023/06/15 04:13:25;;;;;;;;;;;21.90;54.70;;;;;;10326688;28;1910;-69
2023/06/15 04:18:20;;;;;;;;;;;21.90;54.70;;;;;;10326741;28;876;-69
2023/06/15 04:23:16;;;;;;;;;;;21.90;54.80;;;;;;10326409;28;984;-69
2023/06/15 04:28:11;;;;;;;;;;;21.90;54.80;;;;;;10326986;28;927;-75
2023/06/15 04:33:07;;;;;;;;;;;21.90;54.80;;;;;;10326148;28;1898;-79
2023/06/15 04:38:05;;;;;;;;;;;21.90;54.90;;;;;;10326649;28;1725;-69
2023/06/15 04:43:02;;;;;;;;;;;21.90;55.00;;;;;;10325876;28;943;-70
2023/06/15 04:47:58;;;;;;;;;;;21.90;55.00;;;;;;10325711;28;961;-70
2023/06/15 04:52:53;;;;;;;;;;;21.90;55.00;;;;;;10325689;28;1905;-70
2023/06/15 04:57:49;;;;;;;;;;;21.90;55.00;;;;;;10325142;28;1469;-70
2023/06/15 05:02:44;;;;;;;;;;;21.90;55.10;;;;;;10325822;28;958;-70
2023/06/15 05:07:40;;;;;;;;;;;21.90;54.90;;;;;;10325363;28;924;-69
2023/06/15 05:12:35;;;;;;;;;;;21.80;54.90;;;;;;10326245;28;1979;-70
2023/06/15 05:17:30;;;;;;;;;;;21.80;54.90;;;;;;10325495;28;864;-70
2023/06/15 05:22:26;;;;;;;;;;;21.80;54.90;;;;;;10332953;28;885;-70
2023/06/15 05:27:21;;;;;;;;;;;21.80;54.90;;;;;;10308245;28;1126;-71
2023/06/15 05:32:17;;;;;;;;;;;21.80;55.00;;;;;;10292510;28;1902;-70
2023/06/15 05:37:12;;;;;;;;;;;21.80;55.00;;;;;;10291536;28;836;-70
2023/06/15 05:42:07;;;;;;;;;;;21.80;55.00;;;;;;10291460;28;899;-70
2023/06/15 05:47:03;;;;;;;;;;;21.80;55.00;;;;;;10291834;28;936;-70
2023/06/15 05:51:58;;;;;;;;;;;21.80;55.10;;;;;;10290753;28;1898;-70
2023/06/15 05:56:54;;;;;;;;;;;21.80;55.20;;;;;;10290585;28;1143;-71
2023/06/15 06:01:49;;;;;;;;;;;21.80;55.30;;;;;;10291007;28;942;-70
2023/06/15 06:06:45;;;;;;;;;;;21.80;55.30;;;;;;10291764;28;822;-69
2023/06/15 06:11:40;;;;;;;;;;;21.80;55.40;;;;;;10291496;28;1973;-69
2023/06/15 06:16:35;;;;;;;;;;;21.80;55.50;;;;;;10291449;28;814;-70
2023/06/15 06:21:32;;;;;;;;;;;21.80;55.50;;;;;;10290880;28;839;-69
2023/06/15 06:26:27;;;;;;;;;;;21.80;55.50;;;;;;10290111;28;1073;-70
2023/06/15 06:31:22;;;;;;;;;;;21.80;55.60;;;;;;10289554;28;1898;-70
2023/06/15 06:36:18;;;;;;;;;;;21.80;55.60;;;;;;10289983;28;963;-70
2023/06/15 06:41:13;;;;;;;;;;;21.70;55.60;;;;;;10289795;28;898;-70
2023/06/15 06:46:09;;;;;;;;;;;21.80;55.90;;;;;;10290267;28;900;-70
2023/06/15 06:51:04;;;;;;;;;;;21.80;55.90;;;;;;10289917;28;1963;-69
2023/06/15 06:56:00;;;;;;;;;;;21.80;56.00;;;;;;10289038;28;1259;-70
2023/06/15 07:00:55;;;;;;;;;;;21.80;56.00;;;;;;10289092;28;876;-70
2023/06/15 07:05:51;;;;;;;;;;;21.80;56.20;;;;;;10288291;28;841;-70
2023/06/15 07:10:46;;;;;;;;;;;21.80;56.20;;;;;;10288773;28;1969;-70
2023/06/15 07:15:41;;;;;;;;;;;21.80;56.40;;;;;;10288484;28;947;-70
2023/06/15 07:20:37;;;;;;;;;;;21.80;56.40;;;;;;10287724;28;880;-71
2023/06/15 07:25:32;;;;;;;;;;;21.70;56.40;;;;;;10288740;28;872;-70
2023/06/15 07:30:29;;;;;;;;;;;21.70;56.40;;;;;;10288740;28;864;-70
2023/06/15 07:35:24;;;;;;;;;;;21.70;56.40;;;;;;10288260;28;1964;-70
2023/06/15 07:40:19;;;;;;;;;;;21.70;56.50;;;;;;10288154;28;809;-70
2023/06/15 07:45:15;;;;;;;;;;;21.70;56.70;;;;;;10287037;28;755;-70
2023/06/15 07:50:10;;;;;;;;;;;21.70;56.60;;;;;;10287147;28;845;-68
2023/06/15 07:55:05;;;;;;;;;;;21.70;56.70;;;;;;10286904;28;1906;-71
2023/06/15 08:00:01;;;;;;;;;;;21.70;56.70;;;;;;10286935;28;1165;-70
2023/06/15 08:04:56;;;;;;;;;;;21.70;56.60;;;;;;10285976;28;825;-70
2023/06/15 08:09:52;;;;;;;;;;;21.70;56.60;;;;;;10285462;28;964;-70
2023/06/15 08:14:48;;;;;;;;;;;21.70;56.60;;;;;;10286235;28;1917;-70
2023/06/15 08:19:44;;;;;;;;;;;21.70;56.50;;;;;;10286682;28;883;-70
2023/06/15 08:24:39;;;;;;;;;;;21.70;56.50;;;;;;10285875;28;872;-70
2023/06/15 08:29:34;;;;;;;;;;;21.70;56.40;;;;;;10285702;28;805;-70
2023/06/15 08:34:30;;;;;;;;;;;21.70;56.40;;;;;;10285997;28;1971;-70
2023/06/15 08:39:25;;;;;;;;;;;21.70;56.40;;;;;;10286018;28;836;-70
2023/06/15 08:44:20;;;;;;;;;;;21.70;56.30;;;;;;10285936;28;783;-70
2023/06/15 08:49:16;;;;;;;;;;;21.70;56.40;;;;;;10285094;28;813;-70
2023/06/15 08:54:11;;;;;;;;;;;21.70;56.30;;;;;;10285276;28;1905;-70
2023/06/15 08:59:07;;;;;;;;;;;21.70;56.30;;;;;;10284421;28;1434;-70
2023/06/15 09:04:02;;;;;;;;;;;21.60;56.00;;;;;;10285329;28;868;-70
2023/06/15 09:08:57;;;;;;;;;;;21.70;56.10;;;;;;10285251;28;888;-70
2023/06/15 09:13:53;;;;;;;;;;;21.60;56.10;;;;;;10284497;28;1913;-70
2023/06/15 09:18:49;;;;;;;;;;;21.60;56.00;;;;;;10284453;28;868;-70
2023/06/15 09:23:44;;;;;;;;;;;21.60;56.20;;;;;;10284211;28;1015;-73
2023/06/15 09:28:40;;;;;;;;;;;21.60;56.30;;;;;;10284894;28;983;-69
2023/06/15 09:33:35;;;;;;;;;;;21.60;56.20;;;;;;10284173;28;1977;-69
2023/06/15 09:38:31;;;;;;;;;;;21.60;56.20;;;;;;10284376;28;853;-70
2023/06/15 09:43:26;;;;;;;;;;;21.60;56.20;;;;;;10284079;28;877;-70
2023/06/15 09:48:21;;;;;;;;;;;21.60;56.20;;;;;;10284510;28;849;-73
2023/06/15 09:53:17;;;;;;;;;;;21.60;56.30;;;;;;10283756;28;1905;-73
2023/06/15 09:58:12;;;;;;;;;;;21.60;56.10;;;;;;10283891;28;1308;-73
2023/06/15 10:03:08;;;;;;;;;;;21.60;56.20;;;;;;10284222;28;870;-68
2023/06/15 10:08:04;;;;;;;;;;;21.60;56.20;;;;;;10289216;28;952;-68
2023/06/15 10:13:00;;;;;;;;;;;21.60;56.20;;;;;;10290793;28;1906;-68
2023/06/15 10:17:56;;;;;;;;;;;21.60;56.20;;;;;;10291320;28;862;-68
2023/06/15 10:22:51;;;;;;;;;;;21.60;56.20;;;;;;10291059;28;949;-70
2023/06/15 10:27:47;;;;;;;;;;;21.60;56.20;;;;;;10291149;28;805;-70
2023/06/15 10:32:42;;;;;;;;;;;21.60;56.30;;;;;;10290698;28;1973;-70
2023/06/15 10:37:38;;;;;;;;;;;21.60;56.30;;;;;;10290009;28;860;-70
2023/06/15 10:42:33;;;;;;;;;;;21.60;56.40;;;;;;10289824;28;862;-70
2023/06/15 10:47:28;;;;;;;;;;;21.60;56.40;;;;;;10290213;28;801;-70
2023/06/15 10:52:24;;;;;;;;;;;21.60;56.40;;;;;;10288781;28;1972;-70
2023/06/15 10:57:19;;;;;;;;;;;21.60;56.10;;;;;;10289143;28;1341;-70
2023/06/15 11:02:15;;;;;;;;;;;21.60;56.10;;;;;;10289941;28;940;-70
2023/06/15 11:07:12;;;;;;;;;;;21.60;56.10;;;;;;10289442;28;787;-70
2023/06/15 11:12:07;;;;;;;;;;;21.60;56.00;;;;;;10287984;28;1981;-70
2023/06/15 11:17:02;;;;;;;;;;;21.60;56.10;;;;;;10288452;28;854;-70
2023/06/15 11:21:59;;;;;;;;;;;21.60;56.20;;;;;;10288373;28;779;-70
2023/06/15 11:26:54;;;;;;;;;;;21.60;56.20;;;;;;10288103;28;985;-70
2023/06/15 11:31:49;;;;;;;;;;;21.60;56.30;;;;;;10287303;28;1906;-70
2023/06/15 11:36:45;;;;;;;;;;;21.50;56.20;;;;;;10287202;28;1114;-70
2023/06/15 11:41:43;;;;;;;;;;;21.50;56.20;;;;;;10288114;28;923;-70
2023/06/15 11:46:38;;;;;;;;;;;21.50;56.20;;;;;;10288117;28;878;-70
2023/06/15 11:51:34;;;;;;;;;;;21.50;56.20;;;;;;10287108;28;1902;-70
2023/06/15 11:56:29;;;;;;;;;;;21.50;56.20;;;;;;10286693;28;1624;-70
2023/06/15 12:01:26;;;;;;;;;;;21.50;56.80;;;;;;10287037;28;941;-70
2023/06/15 12:06:22;;;;;;;;;;;21.60;56.30;;;;;;10284851;28;1110;-70
2023/06/15 12:11:17;;;;;;;;;;;21.60;56.30;;;;;;10282389;28;1914;-69
2023/06/15 12:16:12;;;;;;;;;;;21.60;56.20;;;;;;10305367;28;1879;-69
2023/06/15 12:21:08;;;;;;;;;;;21.60;56.20;;;;;;10326360;28;883;-69
2023/06/15 12:26:04;;;;;;;;;;;21.60;56.20;;;;;;10326187;28;1073;-69
2023/06/15 12:31:00;;;;;;;;;;;21.60;56.20;;;;;;10324336;28;1910;-70
2023/06/15 12:35:55;;;;;;;;;;;21.60;56.30;;;;;;10325423;28;872;-70
2023/06/15 12:40:52;;;;;;;;;;;21.60;56.20;;;;;;10325766;28;879;-70
2023/06/15 12:45:47;;;;;;;;;;;21.60;56.20;;;;;;10325672;28;964;-67
2023/06/15 12:50:43;;;;;;;;;;;21.60;56.20;;;;;;10326092;28;797;-67
2023/06/15 12:55:38;;;;;;;;;;;21.60;56.20;;;;;;10325773;28;1910;-70
2023/06/15 13:00:33;;;;;;;;;;;21.60;56.20;;;;;;10324424;28;1430;-70
2023/06/15 13:05:29;;;;;;;;;;;21.70;56.10;;;;;;10325339;28;872;-70
2023/06/15 13:10:24;;;;;;;;;;;21.70;56.10;;;;;;10325819;28;881;-71
2023/06/15 13:15:20;;;;;;;;;;;21.60;56.10;;;;;;10325051;28;1909;-68
2023/06/15 13:20:15;;;;;;;;;;;21.60;56.30;;;;;;10325046;28;747;-70
2023/06/15 13:25:11;;;;;;;;;;;21.60;56.50;;;;;;10324977;28;886;-71
2023/06/15 13:30:09;;;;;;;;;;;21.60;56.60;;;;;;10324854;28;781;-71
2023/06/15 13:35:05;;;;;;;;;;;21.60;56.70;;;;;;10325470;28;1965;-71
2023/06/15 13:40:00;;;;;;;;;;;21.60;56.70;;;;;;10325549;28;846;-70
2023/06/15 13:44:56;;;;;;;;;;;21.60;56.80;;;;;;10332606;28;750;-70
2023/06/15 13:49:51;;;;;;;;;;;21.60;56.90;;;;;;10333209;28;859;-71
2023/06/15 13:54:46;;;;;;;;;;;21.60;56.90;;;;;;10332016;28;1902;-70
2023/06/15 13:59:42;;;;;;;;;;;21.60;57.00;;;;;;10332809;28;1128;-70
2023/06/15 14:04:37;;;;;;;;;;;21.60;56.90;;;;;;10296491;28;1073;-70
2023/06/15 14:09:32;;;;;;;;;;;21.70;57.00;;;;;;10290868;28;853;-70
2023/06/15 14:14:28;;;;;;;;;;;21.70;57.00;;;;;;10290613;28;1917;-70
2023/06/15 14:19:24;;;;;;;;;;;21.70;57.00;;;;;;10290608;28;1157;-70
2023/06/15 14:24:19;;;;;;;;;;;21.60;57.00;;;;;;10291119;28;911;-70
2023/06/15 14:29:15;;;;;;;;;;;21.70;57.00;;;;;;10290022;28;855;-70
2023/06/15 14:34:10;;;;;;;;;;;21.70;57.00;;;;;;10289846;28;1898;-70
2023/06/15 14:39:06;;;;;;;;;;;21.70;57.00;;;;;;10289188;28;817;-70
2023/06/15 14:44:02;;;;;;;;;;;21.70;57.00;;;;;;10289619;28;881;-70
2023/06/15 14:48:57;;;;;;;;;;;21.70;56.90;;;;;;10290007;28;868;-70
2023/06/15 14:53:53;;;;;;;;;;;21.70;56.90;;;;;;10288098;28;1898;-70
2023/06/15 14:58:49;;;;;;;;;;;21.70;56.90;;;;;;10289091;28;1255;-70
2023/06/15 15:03:44;;;;;;;;;;;21.70;56.90;;;;;;10289202;28;1006;-69
2023/06/15 15:08:39;;;;;;;;;;;21.70;56.80;;;;;;10290106;28;882;-69
2023/06/15 15:13:35;;;;;;;;;;;21.70;56.80;;;;;;10288653;28;1910;-70
2023/06/15 15:18:30;;;;;;;;;;;21.80;56.90;;;;;;10288537;28;900;-69
2023/06/15 15:23:26;;;;;;;;;;;21.80;56.90;;;;;;10288357;28;777;-69
2023/06/15 15:28:22;;;;;;;;;;;21.80;56.90;;;;;;10288605;28;1007;-69
2023/06/15 15:33:17;;;;;;;;;;;21.80;56.90;;;;;;10288495;28;1964;-69
2023/06/15 15:38:13;;;;;;;;;;;21.80;57.00;;;;;;10288415;28;880;-69
2023/06/15 15:43:08;;;;;;;;;;;21.80;56.90;;;;;;10287560;28;961;-68
2023/06/15 15:48:03;;;;;;;;;;;21.80;56.90;;;;;;10287946;28;856;-69
2023/06/15 15:52:59;;;;;;;;;;;21.80;56.90;;;;;;10287682;28;1955;-69
2023/06/15 15:57:55;;;;;;;;;;;21.80;56.90;;;;;;10286854;28;1233;-70
2023/06/15 16:02:50;;;;;;;;;;;21.80;56.80;;;;;;10286006;28;874;-69
2023/06/15 16:07:46;;;;;;;;;;;21.80;56.80;;;;;;10286618;28;856;-69
2023/06/15 16:12:41;;;;;;;;;;;21.80;57.30;;;;;;10286916;28;1973;-70
2023/06/15 16:17:36;;;;;;;;;;;21.80;56.70;;;;;;10286804;28;859;-70
2023/06/15 16:22:32;;;;;;;;;;;21.80;56.70;;;;;;10286263;28;861;-70
2023/06/15 16:27:27;;;;;;;;;;;21.80;56.70;;;;;;10285881;28;801;-69
2023/06/15 16:32:23;;;;;;;;;;;21.80;56.60;;;;;;10285847;28;1957;-69
2023/06/15 16:37:18;;;;;;;;;;;21.80;56.70;;;;;;10284966;28;1215;-73
2023/06/15 16:42:14;;;;;;;;;;;21.80;56.70;;;;;;10285415;28;796;-70
2023/06/15 16:47:09;;;;;;;;;;;21.80;56.50;;;;;;10285218;28;772;-70
2023/06/15 16:52:04;;;;;;;;;;;21.80;56.50;;;;;;10284468;28;1957;-69
2023/06/15 16:57:00;;;;;;;;;;;21.80;56.50;;;;;;10284875;28;1307;-69
2023/06/15 17:01:55;;;;;;;;;;;21.80;56.50;;;;;;10285071;28;849;-70
2023/06/15 17:06:53;;;;;;;;;;;21.80;56.50;;;;;;10285342;28;802;-70
2023/06/15 17:11:49;;;;;;;;;;;21.80;56.50;;;;;;10284538;28;1977;-70
2023/06/15 17:16:45;;;;;;;;;;;21.80;56.50;;;;;;10293967;28;894;-69
2023/06/15 17:21:40;;;;;;;;;;;21.80;56.40;;;;;;10298567;28;893;-69
2023/06/15 17:26:36;;;;;;;;;;;21.80;56.40;;;;;;10297934;28;801;-70
2023/06/15 17:31:31;;;;;;;;;;;21.90;56.50;;;;;;10297650;28;1906;-70
2023/06/15 17:36:27;;;;;;;;;;;21.90;56.50;;;;;;10297751;28;887;-68
2023/06/15 17:41:22;;;;;;;;;;;21.90;56.50;;;;;;10297659;28;772;-68
2023/06/15 17:46:17;;;;;;;;;;;21.80;56.50;;;;;;10298186;28;817;-68
2023/06/15 17:51:13;;;;;;;;;;;21.80;56.40;;;;;;10296825;28;1902;-68
2023/06/15 17:56:08;;;;;;;;;;;21.90;56.50;;;;;;10297390;28;1386;-68
2023/06/15 18:01:04;;;;;;;;;;;21.90;56.40;;;;;;10296828;28;853;-68
2023/06/15 18:05:59;;;;;;;;;;;21.90;56.40;;;;;;10297829;28;780;-68
2023/06/15 18:10:55;;;;;;;;;;;21.90;56.50;;;;;;10297138;28;767;-68
2023/06/15 18:15:50;;;;;;;;;;;21.90;56.50;;;;;;10297754;28;1918;-68
2023/06/15 18:20:45;;;;;;;;;;;21.90;56.50;;;;;;10297148;28;788;-68
2023/06/15 18:25:41;;;;;;;;;;;21.90;56.40;;;;;;10295029;28;758;-68
2023/06/15 18:30:36;;;;;;;;;;;21.90;56.40;;;;;;10289680;28;1010;-69
2023/06/15 18:35:32;;;;;;;;;;;21.90;56.50;;;;;;10289338;28;1973;-68
2023/06/15 18:40:27;;;;;;;;;;;21.90;56.40;;;;;;10290387;28;838;-68
2023/06/15 18:45:22;;;;;;;;;;;21.90;56.40;;;;;;10289659;28;788;-69
2023/06/15 18:50:18;;;;;;;;;;;21.90;56.40;;;;;;10289493;28;948;-68
2023/06/15 18:55:13;;;;;;;;;;;21.90;56.40;;;;;;10288577;28;1902;-68
2023/06/15 19:00:08;;;;;;;;;;;21.90;56.40;;;;;;10288808;28;1364;-68
2023/06/15 19:05:04;;;;;;;;;;;21.90;56.30;;;;;;10289614;28;965;-68
2023/06/15 19:10:00;;;;;;;;;;;21.90;56.40;;;;;;10288636;28;894;-68
2023/06/15 19:14:55;;;;;;;;;;;21.90;56.30;;;;;;10288378;28;1918;-69
2023/06/15 19:19:51;;;;;;;;;;;21.90;56.40;;;;;;10288863;28;792;-71
2023/06/15 19:24:48;;;;;;;;;;;21.90;56.40;;;;;;10288049;28;935;-69
2023/06/15 19:29:43;;;;;;;;;;;22.00;56.50;;;;;;10287918;28;951;-69
2023/06/15 19:34:39;;;;;;;;;;;22.00;56.50;;;;;;10287693;28;1976;-69
2023/06/15 19:39:34;;;;;;;;;;;22.00;56.50;;;;;;10286389;28;861;-69
2023/06/15 19:44:29;;;;;;;;;;;22.00;56.50;;;;;;10287309;28;875;-69
2023/06/15 19:49:28;;;;;;;;;;;22.00;56.40;;;;;;10288018;28;755;-68
2023/06/15 19:54:24;;;;;;;;;;;21.90;56.40;;;;;;10287021;28;1971;-68
2023/06/15 19:59:19;;;;;;;;;;;22.00;56.50;;;;;;10286291;28;1219;-68
2023/06/15 20:04:15;;;;;;;;;;;21.90;56.40;;;;;;10287382;28;813;-68
2023/06/15 20:09:10;;;;;;;;;;;22.00;57.10;;;;;;10286735;28;793;-68
2023/06/15 20:14:06;;;;;;;;;;;22.00;56.50;;;;;;10286892;28;1985;-68
2023/06/15 20:19:01;;;;;;;;;;;22.00;56.60;;;;;;10286933;28;935;-68
2023/06/15 20:23:57;;;;;;;;;;;21.90;57.00;;;;;;10286114;28;855;-68
2023/06/15 20:28:52;;;;;;;;;;;22.00;56.50;;;;;;10286748;28;881;-68
2023/06/15 20:33:48;;;;;;;;;;;21.90;56.50;;;;;;10285697;28;1902;-69
2023/06/15 20:38:44;;;;;;;;;;;22.00;56.50;;;;;;10286226;28;831;-69
2023/06/15 20:43:39;;;;;;;;;;;22.00;56.50;;;;;;10285399;28;947;-69
2023/06/15 20:48:35;;;;;;;;;;;22.00;56.50;;;;;;10285745;28;866;-69
2023/06/15 20:53:32;;;;;;;;;;;22.00;56.60;;;;;;10285076;28;1910;-69
2023/06/15 20:58:27;;;;;;;;;;;22.00;56.60;;;;;;10284785;28;1842;-69
2023/06/15 21:03:22;;;;;;;;;;;22.00;56.60;;;;;;10284923;28;902;-69
2023/06/15 21:08:18;;;;;;;;;;;22.00;56.60;;;;;;10284758;28;782;-69
2023/06/15 21:13:13;;;;;;;;;;;22.00;56.60;;;;;;10283962;28;1902;-69
2023/06/15 21:18:11;;;;;;;;;;;22.00;56.60;;;;;;10283984;28;822;-68
2023/06/15 21:23:06;;;;;;;;;;;22.00;56.60;;;;;;10284111;28;873;-68
2023/06/15 21:28:02;;;;;;;;;;;21.90;56.80;;;;;;10284543;28;874;-68
2023/06/15 21:32:57;;;;;;;;;;;21.90;56.40;;;;;;10284846;28;1898;-68
2023/06/15 21:37:53;;;;;;;;;;;22.00;56.60;;;;;;10284169;28;754;-68
2023/06/15 21:42:48;;;;;;;;;;;22.00;56.50;;;;;;10284128;28;758;-68
2023/06/15 21:47:45;;;;;;;;;;;22.00;56.50;;;;;;10283976;28;876;-68
2023/06/15 21:52:46;;;;;;;;;;;22.00;56.60;;;;;;10284021;28;1965;-68
2023/06/15 21:57:41;;;;;;;;;;;22.00;56.90;;;;;;10284781;28;1384;-68
2023/06/15 22:02:36;;;;;;;;;;;22.00;56.60;;;;;;10287833;28;783;-68
2023/06/15 22:07:32;;;;;;;;;;;22.00;56.60;;;;;;10291372;28;943;-69
2023/06/15 22:12:28;;;;;;;;;;;22.00;56.70;;;;;;10291047;28;1910;-69
2023/06/15 22:17:25;;;;;;;;;;;21.90;56.60;;;;;;10290901;28;931;-69
2023/06/15 22:22:21;;;;;;;;;;;22.00;56.60;;;;;;10290698;28;949;-69
2023/06/15 22:27:17;;;;;;;;;;;22.00;56.50;;;;;;10289986;28;940;-69
2023/06/15 22:32:12;;;;;;;;;;;22.00;56.50;;;;;;10290288;28;1898;-69
2023/06/15 22:37:08;;;;;;;;;;;22.00;56.60;;;;;;10289697;28;850;-69
2023/06/15 22:42:03;;;;;;;;;;;22.00;56.50;;;;;;10290593;28;804;-69
2023/06/15 22:47:02;;;;;;;;;;;21.90;56.40;;;;;;10290588;28;895;-69
2023/06/15 22:51:58;;;;;;;;;;;22.00;56.20;;;;;;10289534;28;1902;-69
2023/06/15 22:56:53;;;;;;;;;;;22.00;56.40;;;;;;10289684;28;1117;-69
2023/06/15 23:01:48;;;;;;;;;;;22.00;56.10;;;;;;10289281;28;863;-69
2023/06/15 23:06:44;;;;;;;;;;;22.00;56.10;;;;;;10288639;28;940;-69
2023/06/15 23:11:39;;;;;;;;;;;22.00;56.40;;;;;;10288476;28;1906;-69
2023/06/15 23:16:35;;;;;;;;;;;22.00;56.10;;;;;;10288204;28;1192;-69
2023/06/15 23:21:30;;;;;;;;;;;21.90;56.10;;;;;;10288767;28;876;-69
2023/06/15 23:26:29;;;;;;;;;;;22.00;56.50;;;;;;10288881;28;931;-69
2023/06/15 23:31:27;;;;;;;;;;;22.00;56.50;;;;;;10288654;28;1959;-69
2023/06/15 23:36:23;;;;;;;;;;;22.00;56.50;;;;;;10288576;28;882;-69
2023/06/15 23:41:21;;;;;;;;;;;22.00;56.50;;;;;;10287786;28;786;-69
2023/06/15 23:46:17;;;;;;;;;;;22.00;56.40;;;;;;10287494;28;1126;-69
2023/06/15 23:51:12;;;;;;;;;;;22.00;56.40;;;;;;10288582;28;858;-69
2023/06/15 23:56:09;;;;;;;;;;;22.00;56.20;;;;;;10287508;28;1953;-69
